Time;durP1;ratioP1;P1;durP2;ratioP2;P2;SDS_P1;SDS_P2;PMS_P1;PMS_P2;Temp;Humidity;BMP_temperature;BMP_pressure;BME280_temperature;BME280_humidity;BME280_pressure;Samples;Min_cycle;Max_cycle;Signal;HPM_P1;HPM_P2
2022/09/19 00:00:54;;;;;;;7.47;2.42;;;12.60;94.80;;;;;;5047088;28;20066;-93
2022/09/19 00:03:51;;;;;;;;;;;;;;;;;;;;;
2022/09/19 00:06:30;;;;;;;10.18;2.10;;;12.60;94.90;;;;;;5048267;28;20112;-95
2022/09/19 00:09:04;;;;;;;9.27;2.20;;;12.60;94.90;;;;;;5030506;28;20025;-95
2022/09/19 00:11:35;;;;;;;9.38;2.17;;;12.60;94.90;;;;;;5030358;28;20437;-96
2022/09/19 00:14:25;;;;;;;9.13;2.90;;;12.60;94.90;;;;;;5046682;28;20044;-93
2022/09/19 00:17:10;;;;;;;9.18;2.15;;;12.60;94.80;;;;;;5045938;28;20086;-95
2022/09/19 00:19:52;;;;;;;;;;;;;;;;;;;;;
2022/09/19 00:22:33;;;;;;;8.95;2.33;;;12.60;94.80;;;;;;5063243;28;20082;-93
2022/09/19 00:25:11;;;;;;;10.18;2.08;;;12.60;94.80;;;;;;5030937;28;20044;-94
2022/09/19 00:27:50;;;;;;;11.45;2.38;;;12.60;94.80;;;;;;5030532;28;20064;-94
2022/09/19 00:30:23;;;;;;;9.15;2.20;;;12.60;94.80;;;;;;5030700;28;20029;-96
2022/09/19 00:33:17;;;;;;;7.93;1.95;;;12.60;94.80;;;;;;5037641;28;20028;-94
2022/09/19 00:36:13;;;;;;;5.38;1.88;;;12.60;94.90;;;;;;5063301;28;20040;-94
2022/09/19 00:38:47;;;;;;;10.88;2.17;;;12.60;94.90;;;;;;5066265;28;20056;-95
2022/09/19 00:44:51;;;;;;;9.15;1.80;;;12.60;94.90;;;;;;5051900;28;20060;-94
2022/09/19 00:47:47;;;;;;;8.98;2.38;;;12.60;94.80;;;;;;5046351;28;20033;-93
2022/09/19 00:50:33;;;;;;;9.35;2.28;;;12.50;94.90;;;;;;5037615;28;20053;-95
2022/09/19 00:53:32;;;;;;;7.65;2.05;;;12.50;94.90;;;;;;5045820;28;20025;-94
2022/09/19 00:56:32;;;;;;;;;;;;;;;;;;;;;
2022/09/19 00:59:12;;;;;;;6.07;1.80;;;12.50;95.00;;;;;;5040797;28;20571;-95
2022/09/19 01:04:54;;;;;;;8.40;2.00;;;12.40;95.10;;;;;;5048192;28;20073;-96
2022/09/19 01:07:43;;;;;;;6.32;1.73;;;12.40;95.00;;;;;;5046069;28;20059;-96
2022/09/19 01:10:58;;;;;;;11.50;2.05;;;12.50;95.10;;;;;;5062259;28;20500;-95
2022/09/19 01:14:11;;;;;;;;;;;;;;;;;;;;;
2022/09/19 01:17:12;;;;;;;9.40;2.30;;;12.50;95.10;;;;;;5063329;28;20111;-94
2022/09/19 01:20:05;;;;;;;7.38;1.55;;;12.60;95.10;;;;;;5062147;28;20055;-93
2022/09/19 01:23:34;;;;;;;8.90;1.95;;;12.60;95.00;;;;;;5045685;28;20116;-94
2022/09/19 01:26:40;;;;;;;10.98;2.10;;;12.60;95.10;;;;;;5019150;28;20037;-93
2022/09/19 01:29:47;;;;;;;6.55;1.63;;;12.60;95.10;;;;;;5061040;28;20056;-93
2022/09/19 01:32:49;;;;;;;;;;;;;;;;;;;;;
2022/09/19 01:35:28;;;;;;;8.35;2.00;;;12.60;95.10;;;;;;5055137;28;20093;-94
2022/09/19 01:38:35;;;;;;;10.75;1.90;;;12.70;95.10;;;;;;5045657;28;20366;-95
2022/09/19 01:41:10;;;;;;;7.50;1.67;;;12.70;95.20;;;;;;5046666;28;20057;-94
2022/09/19 01:43:39;;;;;;;6.90;1.67;;;12.70;95.20;;;;;;5046144;28;20025;-94
2022/09/19 01:46:47;;;;;;;8.80;2.20;;;12.80;95.20;;;;;;5045699;28;20033;-93
2022/09/19 01:49:40;;;;;;;6.68;1.60;;;12.80;95.30;;;;;;5060625;28;20052;-95
2022/09/19 01:52:48;;;;;;;6.78;1.65;;;12.90;95.30;;;;;;5020197;28;20132;-94
2022/09/19 01:56:09;;;;;;;10.35;2.15;;;12.90;95.30;;;;;;5025178;28;20025;-95
2022/09/19 01:59:26;;;;;;;11.25;2.55;;;12.90;95.20;;;;;;4971936;28;20031;-93
2022/09/19 02:02:46;;;;;;;8.30;1.75;;;12.90;95.10;;;;;;5024527;28;20080;-94
2022/09/19 02:05:35;;;;;;;10.60;2.00;;;12.90;95.10;;;;;;4942793;29;20028;-95
2022/09/19 02:08:28;;;;;;;6.05;1.50;;;12.90;95.10;;;;;;4927366;29;20047;-94
2022/09/19 02:11:42;;;;;;;;;;;;;;;;;;;;;
2022/09/19 02:14:41;;;;;;;;;;;;;;;;;;;;;
2022/09/19 02:17:53;;;;;;;7.50;1.75;;;13.00;95.00;;;;;;5045786;28;20014;-93
2022/09/19 02:21:10;;;;;;;8.32;2.05;;;13.00;95.00;;;;;;5041440;28;20029;-93
2022/09/19 02:24:09;;;;;;;;;;;;;;;;;;;;;
2022/09/19 02:26:51;;;;;;;6.45;1.42;;;12.90;95.00;;;;;;5026083;28;20093;-95
2022/09/19 02:29:33;;;;;;;13.38;2.10;;;12.90;95.00;;;;;;5023946;28;20487;-94
2022/09/19 02:32:27;;;;;;;;;;;12.80;95.20;;;;;;5009531;28;20124;-95
2022/09/19 02:35:33;;;;;;;;;;;;;;;;;;;;;
2022/09/19 02:38:33;;;;;;;8.95;2.30;;;12.80;95.00;;;;;;5040711;28;20532;-96
2022/09/19 02:41:46;;;;;;;;;;;;;;;;;;;;;
2022/09/19 02:45:00;;;;;;;10.25;2.03;;;12.80;95.00;;;;;;5011621;28;20116;-92
2022/09/19 02:47:45;;;;;;;9.85;2.15;;;12.80;95.00;;;;;;5039743;28;20038;-94
2022/09/19 02:50:37;;;;;;;7.63;2.08;;;12.80;95.00;;;;;;5031383;28;20049;-95
2022/09/19 02:53:27;;;;;;;9.95;1.48;;;12.70;95.00;;;;;;5060899;28;20029;-93
2022/09/19 02:56:00;;;;;;;7.47;2.25;;;12.70;95.00;;;;;;5042140;28;20017;-96
2022/09/19 02:58:44;;;;;;;;;;;;;;;;;;;;;
2022/09/19 03:01:29;;;;;;;;;;;;;;;;;;;;;
2022/09/19 03:04:30;;;;;;;6.93;1.70;;;12.70;95.10;;;;;;5060657;28;20085;-94
2022/09/19 03:07:23;;;;;;;;;;;;;;;;;;;;;
2022/09/19 03:10:08;;;;;;;8.65;2.22;;;12.70;95.30;;;;;;5061206;28;20112;-94
2022/09/19 03:12:50;;;;;;;9.32;2.00;;;12.70;95.30;;;;;;5046770;28;20142;-93
2022/09/19 03:15:27;;;;;;;8.80;1.83;;;12.80;95.30;;;;;;5042988;28;20025;-93
2022/09/19 03:18:01;;;;;;;7.65;2.45;;;12.80;95.30;;;;;;5043070;28;20025;-92
2022/09/19 03:20:54;;;;;;;6.20;1.90;;;12.80;95.40;;;;;;5042458;28;20107;-93
2022/09/19 03:23:32;;;;;;;7.22;1.83;;;12.80;95.30;;;;;;5041279;28;20040;-93
2022/09/19 03:26:01;;;;;;;4.97;1.77;;;12.80;95.40;;;;;;5041542;28;20159;-93
2022/09/19 03:28:30;;;;;;;7.78;1.83;;;12.90;95.40;;;;;;5041657;28;20104;-91
2022/09/19 03:30:59;;;;;;;6.63;1.80;;;12.80;95.40;;;;;;5041808;28;20025;-91
2022/09/19 03:33:26;;;;;;;8.02;1.60;;;12.90;95.50;;;;;;5042002;28;20044;-92
2022/09/19 03:35:56;;;;;;;8.32;1.83;;;12.90;95.40;;;;;;5041454;28;20063;-93
2022/09/19 03:38:27;;;;;;;7.85;1.50;;;12.90;95.40;;;;;;5042501;28;20088;-94
2022/09/19 03:40:53;;;;;;;9.43;2.10;;;13.00;95.40;;;;;;5041885;28;20021;-92
2022/09/19 03:43:21;;;;;;;6.53;1.65;;;13.00;95.40;;;;;;5041944;28;20051;-94
2022/09/19 03:45:52;;;;;;;8.05;1.80;;;13.00;95.40;;;;;;5025546;28;20059;-93
2022/09/19 03:48:52;;;;;;;5.57;1.65;;;13.00;95.40;;;;;;5042854;28;20026;-94
2022/09/19 03:51:24;;;;;;;9.68;1.90;;;13.00;95.40;;;;;;5041968;28;20048;-95
2022/09/19 03:53:53;;;;;;;9.70;1.75;;;12.90;95.40;;;;;;5059785;28;20010;-94
2022/09/19 03:56:20;;;;;;;7.20;2.10;;;13.00;95.40;;;;;;5075279;28;20033;-94
2022/09/19 03:59:00;;;;;;;8.27;1.83;;;12.90;95.30;;;;;;5047097;28;20066;-95
2022/09/19 04:04:15;;;;;;;4.72;1.50;;;12.90;95.40;;;;;;5046396;28;20048;-94
2022/09/19 04:06:44;;;;;;;9.63;1.80;;;12.90;95.30;;;;;;5043219;28;20036;-96
2022/09/19 04:09:13;;;;;;;6.47;1.65;;;12.90;95.30;;;;;;5042694;28;20029;-93
2022/09/19 04:11:42;;;;;;;6.68;1.92;;;12.90;95.30;;;;;;5026595;28;20114;-93
2022/09/19 04:14:09;;;;;;;5.82;1.52;;;12.90;95.30;;;;;;5040158;28;20484;-88
2022/09/19 04:16:48;;;;;;;7.00;2.20;;;12.90;95.30;;;;;;5042101;28;20094;-88
2022/09/19 04:19:14;;;;;;;5.68;1.73;;;12.90;95.40;;;;;;5038557;28;20018;-88
2022/09/19 04:21:59;;;;;;;6.25;2.08;;;12.90;95.30;;;;;;5038624;28;20029;-88
2022/09/19 04:24:26;;;;;;;8.85;1.80;;;13.00;95.30;;;;;;5038867;28;20029;-88
2022/09/19 04:26:52;;;;;;;4.63;1.38;;;13.00;95.30;;;;;;5056138;28;20040;-89
2022/09/19 04:29:19;;;;;;;7.07;1.85;;;13.00;95.30;;;;;;5038448;28;20021;-87
2022/09/19 04:31:50;;;;;;;8.15;1.92;;;13.00;95.50;;;;;;5058304;28;20022;-93
2022/09/19 04:34:29;;;;;;;;;;;;;;;;;;;;;
2022/09/19 04:37:07;;;;;;;7.20;1.95;;;13.00;95.30;;;;;;5060625;28;20441;-93
2022/09/19 04:39:38;;;;;;;5.95;2.20;;;13.00;95.30;;;;;;5028234;28;20035;-95
2022/09/19 04:42:39;;;;;;;;;;;12.90;95.40;;;;;;5026117;28;20120;-94
2022/09/19 04:45:09;;;;;;;10.10;2.40;;;13.00;95.40;;;;;;4993690;28;19908;-93
2022/09/19 04:48:04;;;;;;;8.63;1.83;;;13.00;95.40;;;;;;5029613;28;20037;-92
2022/09/19 04:50:38;;;;;;;5.30;1.63;;;13.00;95.50;;;;;;5017075;28;20106;-94
2022/09/19 04:53:07;;;;;;;7.00;1.75;;;13.00;95.40;;;;;;5031728;28;20033;-92
2022/09/19 04:55:38;;;;;;;4.88;1.48;;;13.00;95.40;;;;;;5048290;28;20035;-93
2022/09/19 04:58:15;;;;;;;8.88;1.55;;;13.00;95.50;;;;;;5031021;28;20037;-93
2022/09/19 05:00:56;;;;;;;5.05;1.65;;;13.00;95.50;;;;;;5065247;28;20025;-93
2022/09/19 05:03:30;;;;;;;6.63;1.50;;;13.00;95.50;;;;;;5033701;28;20025;-94
2022/09/19 05:05:58;;;;;;;5.38;1.50;;;13.00;95.90;;;;;;5043511;28;20101;-89
2022/09/19 05:08:27;;;;;;;4.68;1.50;;;13.00;95.70;;;;;;5043680;28;20021;-91
2022/09/19 05:11:00;;;;;;;5.72;1.60;;;13.00;95.70;;;;;;5042470;28;20029;-91
2022/09/19 05:13:32;;;;;;;7.82;1.90;;;13.10;95.80;;;;;;5042882;28;20124;-91
2022/09/19 05:16:01;;;;;;;7.75;1.70;;;13.10;95.70;;;;;;5042979;28;20385;-91
2022/09/19 05:18:28;;;;;;;7.75;1.60;;;13.10;95.70;;;;;;5042125;28;20025;-91
2022/09/19 05:21:03;;;;;;;6.47;1.65;;;13.10;95.70;;;;;;5044117;28;20114;-92
2022/09/19 05:23:36;;;;;;;3.92;1.10;;;13.20;95.70;;;;;;5043184;28;20510;-89
2022/09/19 05:26:09;;;;;;;7.15;1.80;;;13.20;95.70;;;;;;5043593;28;20029;-90
2022/09/19 05:28:37;;;;;;;8.65;1.85;;;13.20;95.60;;;;;;5043859;28;20025;-90
2022/09/19 05:31:09;;;;;;;7.65;2.00;;;13.20;95.60;;;;;;5019530;28;20049;-92
2022/09/19 05:33:36;;;;;;;5.47;1.70;;;13.20;95.60;;;;;;5062197;28;20021;-90
2022/09/19 05:36:03;;;;;;;6.57;1.65;;;13.20;95.60;;;;;;5062665;28;20026;-92
2022/09/19 05:38:32;;;;;;;5.40;1.45;;;13.20;95.70;;;;;;5029713;28;20048;-90
2022/09/19 05:41:00;;;;;;;6.15;1.42;;;13.20;95.70;;;;;;5059150;28;20453;-90
2022/09/19 05:43:26;;;;;;;7.47;1.90;;;13.20;95.80;;;;;;5042020;28;20461;-88
2022/09/19 05:45:55;;;;;;;4.32;1.38;;;13.20;95.70;;;;;;5041805;28;20040;-90
2022/09/19 05:48:23;;;;;;;4.85;1.45;;;13.20;95.70;;;;;;5040483;28;20053;-87
2022/09/19 05:50:50;;;;;;;9.00;2.08;;;13.30;95.80;;;;;;5041318;28;20060;-89
2022/09/19 05:56:06;;;;;;;5.63;1.38;;;13.30;95.80;;;;;;5057702;28;20187;-90
2022/09/19 05:58:35;;;;;;;6.80;1.50;;;13.30;95.70;;;;;;5041846;28;20041;-91
2022/09/19 06:01:09;;;;;;;7.15;1.88;;;13.30;95.80;;;;;;5041430;28;20016;-89
2022/09/19 06:03:38;;;;;;;6.45;1.77;;;13.40;95.90;;;;;;5041368;28;20032;-90
2022/09/19 06:06:17;;;;;;;5.10;1.30;;;13.40;95.90;;;;;;5059076;28;20037;-92
2022/09/19 06:08:44;;;;;;;5.68;1.77;;;13.50;95.90;;;;;;5058964;28;20028;-90
2022/09/19 06:11:10;;;;;;;7.18;1.80;;;13.50;95.90;;;;;;5041060;28;20052;-90
2022/09/19 06:16:25;;;;;;;6.43;1.60;;;13.50;95.90;;;;;;5059087;28;20091;-90
2022/09/19 06:18:52;;;;;;;8.45;1.80;;;13.50;96.00;;;;;;5041205;28;20033;-88
2022/09/19 06:21:18;;;;;;;9.57;1.98;;;13.60;96.00;;;;;;5041184;28;20055;-92
2022/09/19 06:23:45;;;;;;;6.22;1.63;;;13.60;96.00;;;;;;5040566;28;20388;-90
2022/09/19 06:26:13;;;;;;;6.28;2.00;;;13.60;96.00;;;;;;5040435;28;20086;-89
2022/09/19 06:28:41;;;;;;;5.78;1.60;;;13.60;96.00;;;;;;5039849;28;20044;-91
2022/09/19 06:31:09;;;;;;;7.18;1.92;;;13.70;96.00;;;;;;5039884;28;20021;-89
2022/09/19 06:33:35;;;;;;;5.03;1.40;;;13.70;96.00;;;;;;5039152;28;20128;-91
2022/09/19 06:36:03;;;;;;;4.90;1.52;;;13.70;95.90;;;;;;5039976;28;20032;-90
2022/09/19 06:38:31;;;;;;;6.60;1.75;;;13.80;95.90;;;;;;5023268;28;20029;-91
2022/09/19 06:40:57;;;;;;;6.97;1.98;;;13.80;95.80;;;;;;5040786;28;20017;-91
2022/09/19 06:43:26;;;;;;;5.75;1.80;;;13.80;95.80;;;;;;5040020;28;20021;-90
2022/09/19 06:45:56;;;;;;;7.70;1.80;;;13.80;95.70;;;;;;5040631;28;20036;-91
2022/09/19 06:48:22;;;;;;;7.53;1.90;;;13.80;95.70;;;;;;5040479;28;20024;-89
2022/09/19 06:50:52;;;;;;;4.97;1.65;;;13.80;95.70;;;;;;5040322;28;20064;-90
2022/09/19 06:53:18;;;;;;;4.45;1.45;;;13.90;95.70;;;;;;5025615;28;20393;-90
2022/09/19 06:55:49;;;;;;;5.90;1.77;;;13.90;95.70;;;;;;5041569;28;20112;-90
2022/09/19 06:58:15;;;;;;;8.07;2.15;;;13.90;95.70;;;;;;5025087;28;20115;-90
2022/09/19 07:00:44;;;;;;;5.93;1.77;;;13.90;95.70;;;;;;5041589;28;20028;-89
2022/09/19 07:03:17;;;;;;;5.60;1.50;;;13.90;95.70;;;;;;5040597;28;20032;-90
2022/09/19 07:05:54;;;;;;;4.72;1.45;;;14.00;95.70;;;;;;5041523;28;20089;-90
2022/09/19 07:08:23;;;;;;;5.55;1.38;;;14.00;95.60;;;;;;5038122;28;20051;-88
2022/09/19 07:10:49;;;;;;;6.55;1.80;;;14.00;95.60;;;;;;5072257;28;20104;-89
2022/09/19 07:13:19;;;;;;;5.68;1.63;;;14.10;95.70;;;;;;5068818;28;20029;-90
2022/09/19 07:15:48;;;;;;;6.82;1.75;;;14.10;95.70;;;;;;5059888;28;20001;-89
2022/09/19 07:18:18;;;;;;;6.07;1.83;;;14.10;95.70;;;;;;5077396;28;20009;-91
2022/09/19 07:20:47;;;;;;;8.55;2.40;;;14.20;95.80;;;;;;5058892;28;20115;-89
2022/09/19 07:23:20;;;;;;;7.82;1.60;;;14.20;95.80;;;;;;5041678;28;20032;-91
2022/09/19 07:25:49;;;;;;;5.38;1.63;;;14.20;95.80;;;;;;5040353;28;20021;-93
2022/09/19 07:28:17;;;;;;;6.32;1.73;;;14.20;95.80;;;;;;5025541;28;20029;-89
2022/09/19 07:30:50;;;;;;;7.82;1.45;;;14.30;95.90;;;;;;5042052;28;20021;-89
2022/09/19 07:33:20;;;;;;;9.32;3.22;;;14.30;95.80;;;;;;5059626;28;20032;-90
2022/09/19 07:35:46;;;;;;;6.25;2.58;;;14.30;95.80;;;;;;5042303;28;20044;-91
2022/09/19 07:38:14;;;;;;;5.85;3.20;;;14.40;95.90;;;;;;5041581;28;20041;-90
2022/09/19 07:40:42;;;;;;;7.60;2.92;;;14.40;95.90;;;;;;5041327;28;20082;-92
2022/09/19 07:43:21;;;;;;;7.53;2.22;;;14.50;95.90;;;;;;5041383;28;20461;-88
2022/09/19 07:45:48;;;;;;;4.13;1.60;;;14.50;95.90;;;;;;5058261;28;20469;-90
2022/09/19 07:48:16;;;;;;;4.30;1.75;;;14.50;95.90;;;;;;5038284;28;20182;-92
2022/09/19 07:50:43;;;;;;;9.20;1.70;;;14.50;95.90;;;;;;5038865;28;20045;-89
2022/09/19 07:53:15;;;;;;;6.82;1.73;;;14.60;95.90;;;;;;5039925;28;20029;-89
2022/09/19 07:55:47;;;;;;;8.73;2.00;;;14.60;96.00;;;;;;5039544;28;20017;-89
2022/09/19 07:58:13;;;;;;;5.88;1.73;;;14.70;96.00;;;;;;5038696;28;20021;-88
2022/09/19 08:00:39;;;;;;;4.97;1.75;;;14.80;96.00;;;;;;5039126;28;20025;-90
2022/09/19 08:03:16;;;;;;;6.25;1.13;;;14.90;95.90;;;;;;5038975;28;20028;-89
2022/09/19 08:05:45;;;;;;;4.70;1.45;;;14.90;95.80;;;;;;5039255;28;20033;-90
2022/09/19 08:08:13;;;;;;;6.50;1.48;;;15.00;95.70;;;;;;5038712;28;20310;-89
2022/09/19 08:10:49;;;;;;;5.70;1.30;;;15.10;95.70;;;;;;5022570;28;20504;-90
2022/09/19 08:13:22;;;;;;;6.05;1.70;;;15.10;95.60;;;;;;5039021;28;20389;-89
2022/09/19 08:15:59;;;;;;;6.07;1.40;;;15.10;95.60;;;;;;5056873;28;20481;-89
2022/09/19 08:18:27;;;;;;;5.00;1.20;;;15.20;95.60;;;;;;5038964;28;20033;-90
2022/09/19 08:20:55;;;;;;;3.63;1.48;;;15.20;95.60;;;;;;5042592;28;20032;-92
2022/09/19 08:23:21;;;;;;;8.75;1.95;;;15.30;95.50;;;;;;5026083;28;20025;-90
2022/09/19 08:25:55;;;;;;;6.75;1.70;;;15.30;95.50;;;;;;5042141;28;20092;-89
2022/09/19 08:28:21;;;;;;;4.55;1.50;;;15.30;95.50;;;;;;5042362;28;20487;-89
2022/09/19 08:30:47;;;;;;;5.05;1.17;;;15.40;95.50;;;;;;5041883;28;20108;-90
2022/09/19 08:33:14;;;;;;;5.13;1.50;;;15.40;95.50;;;;;;5041837;28;20025;-89
2022/09/19 08:35:41;;;;;;;4.32;1.40;;;15.40;95.50;;;;;;5060227;28;20021;-90
2022/09/19 08:38:10;;;;;;;5.72;1.60;;;15.50;95.50;;;;;;5060100;28;20032;-88
2022/09/19 08:40:39;;;;;;;5.60;1.30;;;15.50;95.40;;;;;;5042283;28;20488;-89
2022/09/19 08:43:08;;;;;;;10.02;1.80;;;15.50;95.30;;;;;;5041931;28;20098;-91
2022/09/19 08:46:10;;;;;;;8.00;1.67;;;15.50;95.20;;;;;;5041635;28;20108;-91
2022/09/19 08:48:58;;;;;;;8.80;1.70;;;15.60;95.20;;;;;;5059896;28;20021;-89
2022/09/19 08:51:50;;;;;;;6.70;1.60;;;15.60;95.00;;;;;;5027045;28;20053;-91
2022/09/19 08:54:27;;;;;;;6.30;1.83;;;15.70;95.10;;;;;;5042163;28;20052;-89
2022/09/19 08:56:53;;;;;;;9.38;1.88;;;15.70;95.00;;;;;;5045982;28;20025;-89
2022/09/19 08:59:24;;;;;;;8.05;2.10;;;15.70;94.80;;;;;;5062392;28;20033;-93
2022/09/19 09:01:58;;;;;;;;;;;15.70;94.70;;;;;;5063480;28;20080;-89
2022/09/19 09:04:30;;;;;;;6.97;1.50;;;15.80;94.80;;;;;;5062695;28;19896;-89
2022/09/19 09:07:16;;;;;;;7.90;1.60;;;15.80;94.70;;;;;;5062909;28;20033;-89
2022/09/19 09:09:58;;;;;;;4.55;1.30;;;15.90;94.50;;;;;;5058350;28;20025;-90
2022/09/19 09:12:51;;;;;;;6.10;1.58;;;16.00;94.20;;;;;;5042637;28;20028;-89
2022/09/19 09:15:35;;;;;;;4.80;1.60;;;16.00;94.20;;;;;;5059442;28;20055;-90
2022/09/19 09:18:22;;;;;;;5.63;1.30;;;16.10;94.10;;;;;;5041296;28;20025;-89
2022/09/19 09:20:57;;;;;;;4.60;1.10;;;16.10;94.10;;;;;;5041964;28;20073;-90
2022/09/19 09:23:31;;;;;;;3.90;1.30;;;16.10;94.00;;;;;;5041262;28;20025;-88
2022/09/19 09:26:06;;;;;;;3.78;1.08;;;16.10;93.80;;;;;;5041664;28;20036;-90
2022/09/19 09:28:56;;;;;;;4.32;1.50;;;16.10;93.70;;;;;;5059089;28;20036;-89
2022/09/19 09:31:27;;;;;;;5.50;1.33;;;16.00;93.40;;;;;;5058371;28;20376;-88
2022/09/19 09:34:10;;;;;;;5.22;1.60;;;16.00;93.40;;;;;;5040825;28;20032;-89
2022/09/19 09:36:42;;;;;;;4.95;1.15;;;16.00;93.30;;;;;;5040197;28;20031;-89
2022/09/19 09:39:49;;;;;;;7.60;1.80;;;15.90;93.40;;;;;;5040685;28;20586;-89
2022/09/19 09:42:24;;;;;;;5.80;1.38;;;15.80;93.10;;;;;;5043590;28;20407;-88
2022/09/19 09:44:54;;;;;;;4.93;1.48;;;15.80;93.20;;;;;;5059255;28;20052;-89
2022/09/19 09:47:46;;;;;;;7.75;1.80;;;15.80;93.30;;;;;;5040625;28;20122;-90
2022/09/19 09:50:17;;;;;;;3.40;1.10;;;15.80;93.40;;;;;;5040252;28;20055;-87
2022/09/19 09:53:08;;;;;;;5.63;1.30;;;15.80;93.30;;;;;;5039930;28;20497;-89
2022/09/19 09:56:15;;;;;;;6.25;1.45;;;15.90;93.20;;;;;;5026095;28;20045;-89
2022/09/19 09:58:53;;;;;;;4.25;1.02;;;15.90;93.10;;;;;;5023765;28;20037;-89
2022/09/19 10:04:55;;;;;;;4.70;1.25;;;16.10;93.20;;;;;;5058114;28;20036;-90
2022/09/19 10:08:02;;;;;;;6.20;1.40;;;16.20;93.00;;;;;;5036250;28;20400;-90
2022/09/19 10:10:31;;;;;;;5.40;1.40;;;16.30;92.90;;;;;;5001176;28;20033;-89
2022/09/19 10:13:15;;;;;;;7.47;1.30;;;16.30;92.60;;;;;;5057449;28;20021;-89
2022/09/19 10:15:41;;;;;;;5.68;1.33;;;16.30;92.30;;;;;;5038970;28;20119;-90
2022/09/19 10:18:20;;;;;;;4.95;1.08;;;16.40;92.30;;;;;;5023200;28;20051;-88
2022/09/19 10:20:52;;;;;;;3.20;0.77;;;16.30;92.20;;;;;;5039726;28;20111;-89
2022/09/19 10:23:25;;;;;;;4.00;1.10;;;16.40;92.30;;;;;;5056340;28;20553;-90
2022/09/19 10:26:04;;;;;;;3.67;1.20;;;16.40;92.20;;;;;;5057393;28;20380;-89
2022/09/19 10:28:32;;;;;;;2.97;1.17;;;16.40;92.10;;;;;;5039636;28;20163;-88
2022/09/19 10:31:01;;;;;;;4.97;1.23;;;16.40;92.20;;;;;;5039888;28;20062;-89
2022/09/19 10:33:47;;;;;;;5.93;1.27;;;16.40;91.90;;;;;;5023363;28;20085;-89
2022/09/19 10:36:31;;;;;;;5.63;1.13;;;16.40;91.80;;;;;;5039383;28;20029;-88
2022/09/19 10:39:07;;;;;;;2.08;0.98;;;16.40;91.80;;;;;;5039741;28;20449;-88
2022/09/19 10:41:37;;;;;;;4.05;0.98;;;16.50;91.70;;;;;;5044272;28;20032;-88
2022/09/19 10:44:08;;;;;;;3.65;1.00;;;16.60;91.90;;;;;;5055578;28;20013;-90
2022/09/19 10:46:44;;;;;;;4.40;1.40;;;16.60;91.50;;;;;;5059505;28;20365;-91
2022/09/19 10:49:22;;;;;;;2.85;0.80;;;16.70;91.50;;;;;;5061103;28;20097;-87
2022/09/19 10:51:52;;;;;;;3.13;0.80;;;16.70;90.80;;;;;;5060750;28;20116;-90
2022/09/19 10:54:40;;;;;;;3.20;0.68;;;16.60;90.80;;;;;;5061047;28;20036;-89
2022/09/19 10:57:45;;;;;;;1.95;0.45;;;16.60;90.90;;;;;;5058395;28;20457;-91
2022/09/19 11:00:27;;;;;;;2.22;0.65;;;16.60;91.10;;;;;;5038984;28;20476;-88
2022/09/19 11:02:55;;;;;;;3.85;0.80;;;16.60;91.20;;;;;;5038955;28;20032;-90
2022/09/19 11:05:28;;;;;;;3.50;0.98;;;16.50;90.90;;;;;;5038970;28;20029;-89
2022/09/19 11:07:54;;;;;;;3.13;1.15;;;16.40;90.90;;;;;;5056098;28;20025;-88
2022/09/19 11:10:37;;;;;;;3.72;0.90;;;16.40;91.10;;;;;;5039290;28;20084;-88
2022/09/19 11:13:13;;;;;;;5.65;1.02;;;16.30;91.10;;;;;;5038490;28;20177;-88
2022/09/19 11:16:17;;;;;;;3.10;0.70;;;16.30;91.20;;;;;;5038933;28;20104;-89
2022/09/19 11:19:03;;;;;;;3.47;0.80;;;16.30;91.40;;;;;;5034006;28;20029;-88
2022/09/19 11:21:38;;;;;;;2.95;0.45;;;16.30;91.60;;;;;;5038911;28;20033;-88
2022/09/19 11:24:28;;;;;;;1.45;0.60;;;16.40;91.70;;;;;;5039080;28;20036;-88
2022/09/19 11:27:31;;;;;;;3.58;1.08;;;16.40;91.60;;;;;;5037880;28;20055;-88
2022/09/19 11:30:11;;;;;;;1.90;0.60;;;16.40;91.30;;;;;;5038645;28;20025;-89
2022/09/19 11:33:02;;;;;;;3.67;0.87;;;16.40;91.40;;;;;;5038114;28;20025;-90
2022/09/19 11:35:31;;;;;;;4.68;1.35;;;16.40;92.10;;;;;;5038519;28;20424;-89
2022/09/19 11:38:17;;;;;;;2.38;1.02;;;16.40;92.00;;;;;;5022124;28;20200;-88
2022/09/19 11:41:13;;;;;;;2.80;1.10;;;16.50;92.20;;;;;;5038302;28;20029;-89
2022/09/19 11:44:23;;;;;;;3.55;0.95;;;16.60;92.40;;;;;;5038710;28;20029;-88
2022/09/19 11:47:18;;;;;;;3.40;0.98;;;16.70;92.60;;;;;;4984230;28;20037;-89
2022/09/19 11:50:10;;;;;;;1.92;0.77;;;16.70;92.70;;;;;;5035532;28;20065;-89
2022/09/19 11:53:18;;;;;;;2.03;0.95;;;16.80;92.80;;;;;;4992244;28;20037;-89
2022/09/19 11:56:08;;;;;;;2.90;0.95;;;17.00;92.80;;;;;;5022889;28;20033;-89
2022/09/19 11:58:38;;;;;;;2.30;1.10;;;17.10;92.90;;;;;;5022698;28;20026;-88
2022/09/19 12:01:41;;;;;;;3.40;0.85;;;17.20;92.80;;;;;;5039260;28;20044;-88
2022/09/19 12:04:23;;;;;;;2.05;0.90;;;17.20;92.80;;;;;;5022391;28;20028;-88
2022/09/19 12:07:10;;;;;;;3.05;0.93;;;17.30;92.50;;;;;;5040143;28;20060;-88
2022/09/19 12:09:51;;;;;;;2.72;0.90;;;17.40;92.30;;;;;;5039845;28;20030;-88
2022/09/19 12:12:21;;;;;;;3.25;0.82;;;17.50;92.30;;;;;;5022728;28;20053;-87
2022/09/19 12:14:55;;;;;;;3.13;0.68;;;17.60;92.20;;;;;;5021629;28;20029;-88
2022/09/19 12:17:42;;;;;;;1.65;0.60;;;17.60;92.20;;;;;;5021907;28;20033;-89
2022/09/19 12:20:37;;;;;;;2.55;0.80;;;17.70;91.90;;;;;;5022660;28;20026;-90
2022/09/19 12:26:02;;;;;;;1.75;0.70;;;17.60;88.10;;;;;;5039676;28;20064;-90
2022/09/19 12:28:40;;;;;;;1.95;0.93;;;17.60;86.50;;;;;;5022513;28;20063;-90
2022/09/19 12:31:10;;;;;;;2.55;0.50;;;17.60;86.40;;;;;;5023232;28;20056;-91
2022/09/19 12:34:14;;;;;;;1.98;0.63;;;17.60;85.20;;;;;;5025193;28;20022;-89
2022/09/19 12:37:13;;;;;;;2.10;0.70;;;17.50;86.00;;;;;;5030466;28;20033;-89
2022/09/19 12:39:49;;;;;;;1.25;0.52;;;17.40;86.30;;;;;;5043849;28;20109;-88
2022/09/19 12:42:25;;;;;;;2.55;0.60;;;17.40;86.90;;;;;;5060880;28;20005;-88
2022/09/19 12:45:16;;;;;;;4.80;0.95;;;17.30;87.40;;;;;;5031380;28;20103;-89
2022/09/19 12:48:01;;;;;;;3.55;0.93;;;17.30;87.10;;;;;;5021688;28;20033;-90
2022/09/19 12:50:43;;;;;;;2.58;0.80;;;17.20;87.30;;;;;;5015596;28;20049;-88
2022/09/19 12:53:24;;;;;;;2.03;0.65;;;17.30;88.10;;;;;;5026349;28;20036;-90
2022/09/19 12:56:00;;;;;;;3.20;0.68;;;17.30;88.50;;;;;;5041382;28;20116;-88
2022/09/19 12:58:36;;;;;;;3.72;0.60;;;17.40;89.00;;;;;;5040576;28;20032;-89
2022/09/19 13:01:29;;;;;;;1.17;0.60;;;17.40;89.30;;;;;;5040875;28;20021;-87
2022/09/19 13:04:07;;;;;;;4.05;0.50;;;17.40;89.60;;;;;;5041718;28;20457;-90
2022/09/19 13:06:42;;;;;;;2.38;0.65;;;17.40;89.90;;;;;;5041378;28;20040;-89
2022/09/19 13:09:14;;;;;;;2.00;0.70;;;17.40;90.10;;;;;;5041078;28;20385;-88
2022/09/19 13:11:59;;;;;;;2.95;0.77;;;17.50;90.20;;;;;;5041461;28;20036;-90
2022/09/19 13:14:49;;;;;;;2.65;0.75;;;17.50;90.40;;;;;;5059841;28;20028;-89
2022/09/19 13:23:33;;;;;;;3.67;0.88;;;17.60;90.80;;;;;;5059169;28;20040;-88
2022/09/19 13:26:17;;;;;;;2.45;0.90;;;17.70;90.90;;;;;;5059354;28;20044;-88
2022/09/19 13:29:20;;;;;;;2.17;0.80;;;17.80;90.70;;;;;;5041729;28;20052;-87
2022/09/19 13:31:52;;;;;;;2.28;0.80;;;17.80;90.40;;;;;;5041422;28;20029;-89
2022/09/19 13:34:59;;;;;;;2.08;0.60;;;17.80;90.30;;;;;;5041588;28;20032;-88
2022/09/19 13:37:37;;;;;;;3.47;1.05;;;17.70;86.80;;;;;;5047687;28;20053;-89
2022/09/19 13:40:16;;;;;;;1.55;0.60;;;17.50;86.20;;;;;;5047707;28;20029;-90
2022/09/19 13:42:53;;;;;;;2.67;0.68;;;17.40;85.30;;;;;;5047178;28;20079;-90
2022/09/19 13:45:44;;;;;;;3.83;1.08;;;17.30;85.30;;;;;;5042327;28;20021;-88
2022/09/19 13:48:42;;;;;;;2.35;0.73;;;17.30;85.60;;;;;;5043381;28;20036;-90
2022/09/19 13:52:04;;;;;;;4.50;0.90;;;17.20;86.10;;;;;;5047826;28;20049;-88
2022/09/19 13:54:37;;;;;;;4.47;0.90;;;17.20;86.20;;;;;;4999510;28;20033;-88
2022/09/19 13:57:05;;;;;;;2.65;0.88;;;17.30;86.90;;;;;;5041524;28;20105;-89
2022/09/19 13:59:49;;;;;;;2.38;0.68;;;17.30;87.30;;;;;;5041652;28;20376;-88
2022/09/19 14:02:55;;;;;;;;;;;;;;;;;;;;;
2022/09/19 14:05:31;;;;;;;1.40;0.70;;;17.30;88.40;;;;;;5049521;28;20477;-89
2022/09/19 14:07:59;;;;;;;2.65;0.80;;;17.40;88.70;;;;;;5058794;28;20037;-89
2022/09/19 14:10:47;;;;;;;2.25;0.80;;;17.40;89.00;;;;;;5046015;28;20024;-88
2022/09/19 14:13:40;;;;;;;1.75;0.65;;;17.30;88.60;;;;;;5047136;28;20025;-89
2022/09/19 14:16:09;;;;;;;1.55;0.52;;;17.20;89.20;;;;;;5033906;28;20025;-87
2022/09/19 14:18:46;;;;;;;3.95;0.80;;;17.20;89.90;;;;;;5041829;28;20115;-89
2022/09/19 14:21:28;;;;;;;3.22;0.95;;;17.20;90.10;;;;;;5040612;28;20017;-90
2022/09/19 14:24:35;;;;;;;2.15;0.60;;;17.20;89.90;;;;;;5054197;28;20009;-92
2022/09/19 14:27:41;;;;;;;3.22;0.82;;;17.10;89.30;;;;;;5051162;28;20056;-91
2022/09/19 14:30:41;;;;;;;2.42;0.65;;;17.10;89.40;;;;;;5049810;28;20033;-88
2022/09/19 14:33:44;;;;;;;2.33;0.80;;;17.00;89.50;;;;;;5078923;28;20032;-92
2022/09/19 14:36:32;;;;;;;2.58;0.75;;;17.00;89.40;;;;;;5043335;28;20029;-89
2022/09/19 14:39:19;;;;;;;3.33;0.98;;;17.00;89.50;;;;;;5059289;28;20040;-89
2022/09/19 14:42:22;;;;;;;2.83;0.80;;;17.10;89.40;;;;;;5040020;28;20024;-88